createdAt,value
2023-04-16T00:00:08.340Z,99.99
2023-04-16T00:01:08.325Z,99.99
2023-04-16T00:02:08.428Z,99.99
2023-04-16T00:03:08.547Z,99.99
2023-04-16T00:04:08.667Z,99.99
2023-04-16T00:05:08.360Z,99.99
2023-04-16T00:06:08.301Z,99.99
2023-04-16T00:07:08.291Z,99.99
2023-04-16T00:08:08.288Z,99.99
2023-04-16T00:09:08.576Z,99.99
2023-04-16T00:10:08.293Z,99.99
2023-04-16T00:11:08.264Z,99.99
2023-04-16T00:12:08.260Z,99.99
2023-04-16T00:13:08.260Z,99.99
2023-04-16T00:14:08.265Z,99.99
2023-04-16T00:15:08.247Z,99.99
2023-04-16T00:16:08.240Z,99.99
2023-04-16T00:17:08.351Z,99.99
2023-04-16T00:18:08.236Z,99.99
2023-04-16T00:19:08.445Z,99.99
2023-04-16T00:20:08.217Z,99.99
2023-04-16T00:21:08.216Z,99.99
2023-04-16T00:22:08.208Z,99.99
2023-04-16T00:23:08.207Z,99.99
2023-04-16T00:24:08.195Z,99.99
2023-04-16T00:25:08.194Z,99.99
2023-04-16T00:26:08.212Z,99.99
2023-04-16T00:27:08.192Z,99.99
2023-04-16T00:28:09.991Z,99.99
2023-04-16T00:29:08.677Z,99.99
2023-04-16T00:30:08.199Z,99.99
2023-04-16T00:31:08.196Z,99.99
2023-04-16T00:32:08.163Z,99.99
2023-04-16T00:33:08.155Z,99.99
2023-04-16T00:34:08.142Z,99.99
2023-04-16T00:35:08.149Z,99.99
2023-04-16T00:36:08.632Z,99.99
2023-04-16T00:37:08.126Z,99.99
2023-04-16T00:38:08.134Z,99.99
2023-04-16T00:39:08.490Z,99.99
2023-04-16T00:40:08.110Z,99.99
2023-04-16T00:41:08.104Z,99.99
2023-04-16T00:42:08.136Z,99.99
2023-04-16T00:43:08.101Z,99.99
2023-04-16T00:44:08.088Z,99.99
2023-04-16T00:45:08.086Z,99.99
2023-04-16T00:46:08.097Z,99.99
2023-04-16T00:47:08.083Z,99.99
2023-04-16T00:48:08.069Z,99.99
2023-04-16T00:49:08.240Z,99.99
2023-04-16T00:50:08.051Z,99.99
2023-04-16T00:51:08.050Z,99.99
2023-04-16T00:52:08.050Z,99.99
2023-04-16T00:53:08.054Z,99.99
2023-04-16T00:54:08.039Z,99.99
2023-04-16T00:55:08.030Z,99.99
2023-04-16T00:56:08.022Z,99.99
2023-04-16T00:57:08.020Z,99.99
2023-04-16T00:58:08.040Z,99.99
2023-04-16T00:59:08.377Z,99.99
2023-04-16T01:00:08.001Z,99.99
2023-04-16T01:01:08.043Z,99.99
2023-04-16T01:02:08.106Z,99.99
2023-04-16T01:03:08.182Z,99.99
2023-04-16T01:04:08.082Z,99.99
2023-04-16T01:05:07.978Z,99.99
2023-04-16T01:06:07.970Z,99.99
2023-04-16T01:07:07.991Z,99.99
2023-04-16T01:08:07.965Z,99.99
2023-04-16T01:09:08.332Z,99.99
2023-04-16T01:10:07.951Z,99.99
2023-04-16T01:11:07.962Z,99.99
2023-04-16T01:12:07.985Z,99.99
2023-04-16T01:13:07.947Z,99.99
2023-04-16T01:14:07.977Z,99.99
2023-04-16T01:15:07.929Z,99.99
2023-04-16T01:16:08.158Z,99.99
2023-04-16T01:17:07.951Z,99.99
2023-04-16T01:18:07.907Z,99.99
2023-04-16T01:19:08.234Z,99.99
2023-04-16T01:20:07.907Z,99.99
2023-04-16T01:21:07.905Z,99.99
2023-04-16T01:22:07.902Z,99.99
2023-04-16T01:23:07.888Z,99.99
2023-04-16T01:24:07.887Z,99.99
2023-04-16T01:25:07.888Z,99.99
2023-04-16T01:26:07.869Z,99.99
2023-04-16T01:27:07.883Z,99.99
2023-04-16T01:28:07.864Z,99.99
2023-04-16T01:29:08.080Z,99.99
2023-04-16T01:30:07.870Z,99.99
2023-04-16T01:31:07.925Z,99.99
2023-04-16T01:32:07.834Z,99.99
2023-04-16T01:33:07.834Z,99.99
2023-04-16T01:34:07.839Z,99.99
2023-04-16T01:35:07.822Z,99.99
2023-04-16T01:36:07.822Z,99.99
2023-04-16T01:37:07.811Z,99.99
2023-04-16T01:38:07.807Z,99.99
2023-04-16T01:39:08.092Z,99.99
2023-04-16T01:40:07.796Z,99.99
2023-04-16T01:41:08.241Z,99.99
2023-04-16T01:42:07.789Z,99.99
2023-04-16T01:43:07.783Z,99.99
2023-04-16T01:44:07.782Z,99.99
2023-04-16T01:45:07.765Z,99.99
2023-04-16T01:46:07.831Z,99.99
2023-04-16T01:47:07.759Z,99.99
2023-04-16T01:48:07.758Z,99.99
2023-04-16T01:49:07.886Z,99.99
2023-04-16T01:50:07.746Z,99.99
2023-04-16T01:51:07.739Z,99.99
2023-04-16T01:52:07.737Z,99.99
2023-04-16T01:53:07.730Z,99.99
2023-04-16T01:54:07.722Z,99.99
2023-04-16T01:55:07.719Z,99.99
2023-04-16T01:56:07.716Z,99.99
2023-04-16T01:57:07.730Z,99.99
2023-04-16T01:58:07.711Z,99.99
2023-04-16T01:59:08.125Z,99.99
2023-04-16T02:00:07.687Z,99.99
2023-04-16T02:01:07.743Z,99.99
2023-04-16T02:02:07.811Z,99.99
2023-04-16T02:03:07.920Z,99.99
2023-04-16T02:04:07.696Z,99.99
2023-04-16T02:05:07.678Z,99.99
2023-04-16T02:06:07.660Z,99.99
2023-04-16T02:07:07.655Z,99.99
2023-04-16T02:08:07.673Z,99.99
2023-04-16T02:09:07.975Z,99.99
2023-04-16T02:10:07.639Z,99.99
2023-04-16T02:11:07.637Z,99.99
2023-04-16T02:12:07.714Z,99.99
2023-04-16T02:13:07.621Z,99.99
2023-04-16T02:14:07.624Z,99.99
2023-04-16T02:15:07.633Z,99.99
2023-04-16T02:16:07.657Z,99.99
2023-04-16T02:17:07.646Z,99.99
2023-04-16T02:18:07.716Z,99.99
2023-04-16T02:19:07.736Z,99.99
2023-04-16T02:20:07.585Z,99.99
2023-04-16T02:21:07.576Z,99.99
2023-04-16T02:22:07.729Z,99.99
2023-04-16T02:23:07.563Z,99.99
2023-04-16T02:24:07.558Z,99.99
2023-04-16T02:25:07.556Z,99.99
2023-04-16T02:26:07.548Z,99.99
2023-04-16T02:27:07.582Z,99.99
2023-04-16T02:28:07.538Z,99.99
2023-04-16T02:29:07.786Z,99.99
2023-04-16T02:30:07.528Z,99.99
2023-04-16T02:31:07.518Z,99.99
2023-04-16T02:32:07.591Z,99.99
2023-04-16T02:33:07.540Z,99.99
2023-04-16T02:34:07.523Z,99.99
2023-04-16T02:35:07.496Z,99.99
2023-04-16T02:36:07.491Z,99.99
2023-04-16T02:37:07.484Z,99.99
2023-04-16T02:38:07.480Z,99.99
2023-04-16T02:39:07.632Z,99.99
2023-04-16T02:40:07.471Z,99.99
2023-04-16T02:41:07.461Z,99.99
2023-04-16T02:42:07.465Z,99.99
2023-04-16T02:43:07.451Z,99.99
2023-04-16T02:44:07.447Z,99.99
2023-04-16T02:45:07.443Z,99.99
2023-04-16T02:46:07.805Z,99.99
2023-04-16T02:47:07.429Z,99.99
2023-04-16T02:48:07.430Z,99.99
2023-04-16T02:49:07.521Z,99.99
2023-04-16T02:50:07.444Z,99.99
2023-04-16T02:51:07.412Z,99.99
2023-04-16T02:52:07.405Z,99.99
2023-04-16T02:53:07.403Z,99.99
2023-04-16T02:54:07.397Z,99.99
2023-04-16T02:55:07.394Z,99.99
2023-04-16T02:56:07.389Z,99.99
2023-04-16T02:57:07.377Z,99.99
2023-04-16T02:58:07.382Z,99.99
2023-04-16T02:59:07.664Z,99.99
2023-04-16T03:00:07.369Z,99.99
2023-04-16T03:01:07.386Z,99.99
2023-04-16T03:02:07.366Z,99.99
2023-04-16T03:03:07.372Z,99.99
2023-04-16T03:04:07.364Z,99.99
2023-04-16T03:05:07.332Z,99.99
2023-04-16T03:06:07.367Z,99.99
2023-04-16T03:07:07.340Z,99.99
2023-04-16T03:08:07.324Z,99.99
2023-04-16T03:09:07.772Z,99.99
2023-04-16T03:10:07.304Z,99.99
2023-04-16T03:11:07.301Z,99.99
2023-04-16T03:12:07.302Z,99.99
2023-04-16T03:13:07.296Z,99.99
2023-04-16T03:14:07.288Z,99.99
2023-04-16T03:15:07.308Z,99.99
2023-04-16T03:16:07.334Z,99.99
2023-04-16T03:17:07.269Z,99.99
2023-04-16T03:18:07.269Z,99.99
2023-04-16T03:19:07.428Z,99.99
2023-04-16T03:20:07.257Z,99.99
2023-04-16T03:21:07.249Z,99.99
2023-04-16T03:22:07.269Z,99.99
2023-04-16T03:23:07.252Z,99.99
2023-04-16T03:24:07.236Z,99.99
2023-04-16T03:25:07.222Z,99.99
2023-04-16T03:26:07.227Z,99.99
2023-04-16T03:27:07.223Z,99.99
2023-04-16T03:28:07.214Z,99.99
2023-04-16T03:29:07.390Z,99.99
2023-04-16T03:30:07.204Z,99.99
2023-04-16T03:31:07.214Z,99.99
2023-04-16T03:32:07.191Z,99.99
2023-04-16T03:33:07.185Z,99.99
2023-04-16T03:34:07.206Z,99.99
2023-04-16T03:35:07.171Z,99.99
2023-04-16T03:36:07.170Z,99.99
2023-04-16T03:37:07.162Z,99.99
2023-04-16T03:38:07.171Z,99.99
2023-04-16T03:39:07.308Z,99.99
2023-04-16T03:40:07.174Z,99.99
2023-04-16T03:41:07.143Z,99.99
2023-04-16T03:42:07.169Z,99.99
2023-04-16T03:43:07.132Z,99.99
2023-04-16T03:44:07.129Z,99.99
2023-04-16T03:45:07.117Z,99.99
2023-04-16T03:46:07.542Z,99.99
2023-04-16T03:47:07.108Z,99.99
2023-04-16T03:48:07.108Z,99.99
2023-04-16T03:49:07.314Z,99.99
2023-04-16T03:50:07.106Z,99.99
2023-04-16T03:51:07.112Z,99.99
2023-04-16T03:52:07.097Z,99.99
2023-04-16T03:53:07.078Z,99.99
2023-04-16T03:54:07.169Z,99.99
2023-04-16T03:55:07.086Z,99.99
2023-04-16T03:56:07.075Z,99.99
2023-04-16T03:57:07.068Z,99.99
2023-04-16T03:58:07.058Z,99.99
2023-04-16T03:59:07.249Z,99.99
2023-04-16T04:00:07.058Z,99.99
2023-04-16T04:01:07.067Z,99.99
2023-04-16T04:02:07.173Z,99.99
2023-04-16T04:03:07.197Z,99.99
2023-04-16T04:04:07.399Z,99.99
2023-04-16T04:05:07.070Z,99.99
2023-04-16T04:06:07.010Z,99.99
2023-04-16T04:07:07.014Z,99.99
2023-04-16T04:08:07.011Z,99.99
2023-04-16T04:09:07.103Z,99.99
2023-04-16T04:10:07.020Z,99.99
2023-04-16T04:11:06.984Z,99.99
2023-04-16T04:12:06.980Z,99.99
2023-04-16T04:13:06.980Z,99.99
2023-04-16T04:14:06.974Z,99.99
2023-04-16T04:15:06.965Z,99.99
2023-04-16T04:16:07.038Z,99.99
2023-04-16T04:17:06.958Z,99.99
2023-04-16T04:18:06.966Z,99.99
2023-04-16T04:19:07.019Z,99.99
2023-04-16T04:20:06.942Z,99.99
2023-04-16T04:21:06.943Z,99.99
2023-04-16T04:22:06.931Z,99.99
2023-04-16T04:23:06.927Z,99.99
2023-04-16T04:24:06.922Z,99.99
2023-04-16T04:25:06.919Z,99.99
2023-04-16T04:26:07.017Z,99.99
2023-04-16T04:27:06.901Z,99.99
2023-04-16T04:28:06.900Z,99.99
2023-04-16T04:29:06.992Z,99.99
2023-04-16T04:30:06.894Z,99.99
2023-04-16T04:31:06.882Z,99.99
2023-04-16T04:32:06.950Z,99.99
2023-04-16T04:33:06.978Z,99.99
2023-04-16T04:34:06.867Z,99.99
2023-04-16T04:35:06.866Z,99.99
2023-04-16T04:36:06.862Z,99.99
2023-04-16T04:37:06.864Z,99.99
2023-04-16T04:38:06.853Z,99.99
2023-04-16T04:39:07.087Z,99.99
2023-04-16T04:40:06.841Z,99.99
2023-04-16T04:41:06.831Z,99.99
2023-04-16T04:42:06.845Z,99.99
2023-04-16T04:43:06.833Z,99.99
2023-04-16T04:44:06.817Z,99.99
2023-04-16T04:45:06.826Z,99.99
2023-04-16T04:46:06.830Z,99.99
2023-04-16T04:47:06.802Z,99.99
2023-04-16T04:48:06.806Z,99.99
2023-04-16T04:49:06.801Z,99.99
2023-04-16T04:50:06.791Z,99.99
2023-04-16T04:51:06.787Z,99.99
2023-04-16T04:52:06.776Z,99.99
2023-04-16T04:53:06.770Z,99.99
2023-04-16T04:54:06.779Z,99.99
2023-04-16T04:55:06.764Z,99.99
2023-04-16T04:57:06.750Z,99.99
2023-04-16T04:58:06.772Z,99.99
2023-04-16T04:59:06.742Z,99.99
2023-04-16T05:00:06.735Z,99.99
2023-04-16T05:01:06.810Z,99.99
2023-04-16T05:02:06.742Z,99.99
2023-04-16T05:03:06.778Z,99.99
2023-04-16T05:04:06.775Z,99.99
2023-04-16T05:05:06.744Z,99.99
2023-04-16T05:06:06.707Z,99.99
2023-04-16T05:07:06.706Z,99.99
2023-04-16T05:08:06.704Z,99.99
2023-04-16T05:09:06.700Z,99.99
2023-04-16T05:10:06.688Z,99.99
2023-04-16T05:11:06.681Z,99.99
2023-04-16T05:12:06.702Z,99.99
2023-04-16T05:13:06.682Z,99.99
2023-04-16T05:14:06.708Z,99.99
2023-04-16T05:15:06.667Z,99.99
2023-04-16T05:16:06.669Z,99.99
2023-04-16T05:17:06.679Z,99.99
2023-04-16T05:18:06.652Z,99.99
2023-04-16T05:19:06.706Z,99.99
2023-04-16T05:20:06.639Z,99.99
2023-04-16T05:21:06.635Z,99.99
2023-04-16T05:22:06.630Z,99.99
2023-04-16T05:23:06.624Z,99.99
2023-04-16T05:24:06.623Z,99.99
2023-04-16T05:25:06.626Z,99.99
2023-04-16T05:26:06.610Z,99.99
2023-04-16T05:27:06.626Z,99.99
2023-04-16T05:28:06.617Z,99.99
2023-04-16T05:29:06.595Z,99.99
2023-04-16T05:30:06.624Z,99.99
2023-04-16T05:31:06.593Z,99.99
2023-04-16T05:32:06.586Z,99.99
2023-04-16T05:33:06.577Z,99.99
2023-04-16T05:34:06.581Z,99.99
2023-04-16T05:35:06.565Z,99.99
2023-04-16T05:36:06.562Z,99.99
2023-04-16T05:37:06.565Z,99.99
2023-04-16T05:38:06.555Z,99.99
2023-04-16T05:39:06.621Z,99.99
2023-04-16T05:40:06.542Z,99.99
2023-04-16T05:41:06.536Z,99.99
2023-04-16T05:42:06.542Z,99.99
2023-04-16T05:43:06.522Z,99.99
2023-04-16T05:44:06.520Z,99.99
2023-04-16T05:45:06.512Z,99.99
2023-04-16T05:46:06.581Z,99.99
2023-04-16T05:47:06.505Z,99.99
2023-04-16T05:48:06.507Z,99.99
2023-04-16T05:49:06.505Z,99.99
2023-04-16T05:50:06.490Z,99.99
2023-04-16T05:51:06.682Z,99.99
2023-04-16T05:52:06.479Z,99.99
2023-04-16T05:53:06.487Z,99.99
2023-04-16T05:54:06.463Z,99.99
2023-04-16T05:55:06.462Z,99.99
2023-04-16T05:56:06.463Z,99.99
2023-04-16T05:57:06.452Z,99.99
2023-04-16T05:58:06.442Z,99.99
2023-04-16T05:59:06.460Z,99.99
2023-04-16T06:00:06.442Z,99.99
2023-04-16T06:01:06.446Z,99.99
2023-04-16T06:02:06.483Z,99.99
2023-04-16T06:03:06.722Z,99.99
2023-04-16T06:04:06.601Z,99.99
2023-04-16T06:05:06.441Z,99.99
2023-04-16T06:06:06.406Z,99.99
2023-04-16T06:07:06.396Z,99.99
2023-04-16T06:08:06.404Z,99.99
2023-04-16T06:09:06.394Z,99.99
2023-04-16T06:10:06.390Z,99.99
2023-04-16T06:11:06.381Z,99.99
2023-04-16T06:12:06.376Z,99.99
2023-04-16T06:13:06.377Z,99.99
2023-04-16T06:14:06.371Z,99.99
2023-04-16T06:15:06.382Z,99.99
2023-04-16T06:16:06.381Z,99.99
2023-04-16T06:17:06.351Z,99.99
2023-04-16T06:18:06.393Z,99.99
2023-04-16T06:19:06.353Z,99.99
2023-04-16T06:20:06.334Z,99.99
2023-04-16T06:21:06.332Z,99.99
2023-04-16T06:22:06.342Z,99.99
2023-04-16T06:23:06.318Z,99.99
2023-04-16T06:24:06.321Z,99.99
2023-04-16T06:25:06.320Z,99.99
2023-04-16T06:26:06.305Z,99.99
2023-04-16T06:27:06.306Z,99.99
2023-04-16T06:28:06.291Z,99.99
2023-04-16T06:29:06.287Z,99.99
2023-04-16T06:30:06.286Z,99.99
2023-04-16T06:31:06.314Z,99.99
2023-04-16T06:32:06.277Z,99.99
2023-04-16T06:33:06.276Z,99.99
2023-04-16T06:34:06.278Z,99.99
2023-04-16T06:35:06.258Z,99.99
2023-04-16T06:36:06.258Z,99.99
2023-04-16T06:37:07.782Z,99.99
2023-04-16T06:38:06.239Z,99.99
2023-04-16T06:39:06.261Z,99.99
2023-04-16T06:40:06.229Z,99.99
2023-04-16T06:41:06.230Z,99.99
2023-04-16T06:42:06.261Z,99.99
2023-04-16T06:43:06.220Z,99.99
2023-04-16T06:44:06.223Z,99.99
2023-04-16T06:45:06.208Z,99.99
2023-04-16T06:46:06.208Z,99.99
2023-04-16T06:47:06.269Z,99.99
2023-04-16T06:48:06.266Z,99.99
2023-04-16T06:49:06.184Z,99.99
2023-04-16T06:50:06.201Z,99.99
2023-04-16T06:51:06.526Z,99.99
2023-04-16T06:52:06.215Z,99.99
2023-04-16T06:53:06.162Z,99.99
2023-04-16T06:54:06.159Z,99.99
2023-04-16T06:55:06.177Z,99.99
2023-04-16T06:56:06.146Z,99.99
2023-04-16T06:57:06.149Z,99.99
2023-04-16T06:58:06.171Z,99.99
2023-04-16T06:59:06.135Z,99.99
2023-04-16T07:00:06.128Z,99.99
2023-04-16T07:01:06.142Z,99.99
2023-04-16T07:02:06.202Z,99.99
2023-04-16T07:03:06.272Z,99.99
2023-04-16T07:04:06.134Z,99.99
2023-04-16T07:05:06.121Z,99.99
2023-04-16T07:06:06.109Z,99.99
2023-04-16T07:07:06.093Z,99.99
2023-04-16T07:08:06.084Z,99.99
2023-04-16T07:09:06.088Z,99.99
2023-04-16T07:10:06.072Z,99.99
2023-04-16T07:11:06.072Z,99.99
2023-04-16T07:12:06.074Z,99.99
2023-04-16T07:13:06.058Z,99.99
2023-04-16T07:14:06.054Z,99.99
2023-04-16T07:15:06.067Z,99.99
2023-04-16T07:16:06.086Z,99.99
2023-04-16T07:17:06.064Z,99.99
2023-04-16T07:18:06.045Z,99.99
2023-04-16T07:19:06.037Z,99.99
2023-04-16T07:20:06.024Z,99.99
2023-04-16T07:21:06.013Z,99.99
2023-04-16T07:22:06.034Z,99.99
2023-04-16T07:23:06.007Z,99.99
2023-04-16T07:24:06.006Z,99.99
2023-04-16T07:25:05.997Z,99.99
2023-04-16T07:26:06.000Z,99.99
2023-04-16T07:27:05.987Z,99.99
2023-04-16T07:28:05.994Z,99.99
2023-04-16T07:29:05.987Z,99.99
2023-04-16T07:30:05.970Z,99.99
2023-04-16T07:31:05.968Z,99.99
2023-04-16T07:32:06.001Z,99.99
2023-04-16T07:33:05.999Z,99.99
2023-04-16T07:34:05.951Z,99.99
2023-04-16T07:35:05.950Z,99.99
2023-04-16T07:36:05.944Z,99.99
2023-04-16T07:37:05.938Z,99.99
2023-04-16T07:38:05.974Z,99.99
2023-04-16T07:39:05.932Z,99.99
2023-04-16T07:40:05.918Z,99.99
2023-04-16T07:41:05.920Z,99.99
2023-04-16T07:42:05.908Z,99.99
2023-04-16T07:43:05.910Z,99.99
2023-04-16T07:44:05.901Z,99.99
2023-04-16T07:45:05.900Z,99.99
2023-04-16T07:46:05.969Z,99.99
2023-04-16T07:47:06.049Z,99.99
2023-04-16T07:48:05.880Z,99.99
2023-04-16T07:49:05.871Z,99.83
2023-04-16T07:50:05.880Z,99.99
2023-04-16T07:51:05.878Z,99.99
2023-04-16T07:52:05.866Z,99.73
2023-04-16T07:53:05.892Z,99.99
2023-04-16T07:54:05.874Z,99.99
2023-04-16T07:55:05.855Z,99.93
2023-04-16T07:56:06.048Z,99.73
2023-04-16T07:57:05.839Z,99.93
2023-04-16T07:58:05.828Z,99.83
2023-04-16T07:59:21.004Z,99.99
2023-04-16T08:00:05.818Z,99.27
2023-04-16T08:01:05.819Z,99.63
2023-04-16T08:02:05.902Z,99.68
2023-04-16T08:03:06.043Z,99.99
2023-04-16T08:04:05.910Z,99.48
2023-04-16T08:05:05.882Z,99.58
2023-04-16T08:06:05.793Z,99.63
2023-04-16T08:07:05.786Z,99.42
2023-04-16T08:08:05.780Z,99.38
2023-04-16T08:09:05.784Z,99.27
2023-04-16T08:10:05.798Z,99.48
2023-04-16T08:11:05.780Z,99.48
2023-04-16T08:12:05.759Z,99.48
2023-04-16T08:13:05.754Z,99.48
2023-04-16T08:14:05.749Z,99.27
2023-04-16T08:15:05.747Z,99.07
2023-04-16T08:16:05.796Z,99.07
2023-04-16T08:17:05.752Z,99.07
2023-04-16T08:18:05.891Z,99.07
2023-04-16T08:19:05.804Z,99.07
2023-04-16T08:20:05.821Z,98.86
2023-04-16T08:21:05.774Z,98.82
2023-04-16T08:22:05.717Z,99.63
2023-04-16T08:23:05.794Z,99.22
2023-04-16T08:24:05.708Z,99.38
2023-04-16T08:25:05.713Z,99.08
2023-04-16T08:26:05.712Z,98.05
2023-04-16T08:27:17.895Z,98.16
2023-04-16T08:28:05.692Z,97.74
2023-04-16T08:29:05.680Z,98.57
2023-04-16T08:30:05.674Z,98.72
2023-04-16T08:31:05.764Z,98.83
2023-04-16T08:32:05.663Z,98.57
2023-04-16T08:33:05.722Z,98.42
2023-04-16T08:34:05.659Z,97.91
2023-04-16T08:35:05.651Z,97.80
2023-04-16T08:36:05.664Z,97.08
2023-04-16T08:37:05.678Z,97.80
2023-04-16T08:38:05.637Z,97.70
2023-04-16T08:39:05.632Z,98.27
2023-04-16T08:40:05.629Z,98.47
2023-04-16T08:41:05.628Z,98.16
2023-04-16T08:42:05.699Z,97.86
2023-04-16T08:43:05.606Z,96.83
2023-04-16T08:44:05.606Z,96.73
2023-04-16T08:45:05.600Z,96.94
2023-04-16T08:46:05.671Z,96.53
2023-04-16T08:47:05.656Z,96.32
2023-04-16T08:48:05.584Z,95.70
2023-04-16T08:49:05.579Z,95.70
2023-04-16T08:50:05.574Z,96.32
2023-04-16T08:51:05.593Z,96.22
2023-04-16T08:52:05.618Z,96.69
2023-04-16T08:53:05.572Z,96.07
2023-04-16T08:54:05.562Z,96.12
2023-04-16T08:55:05.549Z,96.42
2023-04-16T08:56:05.800Z,96.17
2023-04-16T08:57:05.536Z,95.66
2023-04-16T08:58:05.556Z,95.20
2023-04-16T08:59:05.538Z,94.84
2023-04-16T09:00:05.540Z,95.66
2023-04-16T09:01:05.541Z,96.07
2023-04-16T09:02:05.603Z,96.58
2023-04-16T09:03:05.573Z,95.56
2023-04-16T09:04:05.827Z,95.36
2023-04-16T09:05:05.502Z,94.84
2023-04-16T09:06:05.511Z,94.43
2023-04-16T09:07:05.488Z,94.02
2023-04-16T09:08:05.487Z,93.82
2023-04-16T09:09:05.485Z,93.82
2023-04-16T09:10:05.478Z,93.71
2023-04-16T09:11:05.476Z,94.43
2023-04-16T09:12:05.468Z,93.82
2023-04-16T09:13:05.466Z,93.82
2023-04-16T09:14:05.473Z,93.66
2023-04-16T09:15:05.457Z,93.55
2023-04-16T09:16:05.467Z,94.23
2023-04-16T09:17:05.440Z,94.74
2023-04-16T09:18:05.438Z,95.15
2023-04-16T09:19:05.438Z,94.43
2023-04-16T09:20:05.423Z,93.82
2023-04-16T09:21:05.422Z,93.82
2023-04-16T09:22:05.421Z,93.82
2023-04-16T09:23:05.410Z,93.71
2023-04-16T09:24:05.422Z,93.71
2023-04-16T09:25:05.411Z,94.18
2023-04-16T09:26:05.399Z,94.18
2023-04-16T09:27:05.396Z,93.57
2023-04-16T09:28:05.396Z,93.77
2023-04-16T09:29:05.388Z,94.59
2023-04-16T09:30:05.402Z,94.29
2023-04-16T09:31:05.375Z,93.67
2023-04-16T09:32:05.489Z,92.96
2023-04-16T09:33:05.360Z,93.37
2023-04-16T09:34:05.464Z,92.18
2023-04-16T09:35:05.356Z,93.41
2023-04-16T09:36:05.372Z,93.51
2023-04-16T09:37:05.369Z,93.71
2023-04-16T09:38:05.360Z,93.88
2023-04-16T09:39:05.366Z,94.39
2023-04-16T09:40:05.327Z,93.51
2023-04-16T09:41:05.324Z,94.02
2023-04-16T09:42:05.319Z,93.67
2023-04-16T09:43:05.331Z,93.77
2023-04-16T09:44:05.473Z,93.77
2023-04-16T09:45:06.331Z,93.37
2023-04-16T09:46:08.187Z,92.65
2023-04-16T09:47:05.325Z,93.06
2023-04-16T09:48:05.340Z,92.65
2023-04-16T09:49:05.288Z,93.67
2023-04-16T09:50:05.283Z,93.47
2023-04-16T09:51:05.284Z,92.65
2023-04-16T09:52:05.270Z,92.44
2023-04-16T09:53:05.267Z,93.67
2023-04-16T09:54:05.263Z,92.50
2023-04-16T09:55:05.262Z,93.52
2023-04-16T09:56:05.420Z,93.84
2023-04-16T09:57:05.251Z,93.32
2023-04-16T09:58:05.274Z,93.01
2023-04-16T09:59:05.255Z,93.12
2023-04-16T10:00:05.245Z,93.32
2023-04-16T10:01:05.303Z,92.19
2023-04-16T10:02:14.506Z,91.93
2023-04-16T10:03:05.297Z,91.83
2023-04-16T10:04:05.308Z,92.03
2023-04-16T10:05:05.243Z,92.96
2023-04-16T10:06:05.206Z,93.77
2023-04-16T10:07:05.215Z,93.73
2023-04-16T10:08:05.237Z,93.88
2023-04-16T10:09:05.194Z,92.19
2023-04-16T10:10:05.193Z,92.19
2023-04-16T10:11:05.188Z,93.32
2023-04-16T10:12:05.182Z,92.60
2023-04-16T10:13:05.174Z,92.10
2023-04-16T10:14:05.173Z,92.40
2023-04-16T10:15:05.184Z,91.95
2023-04-16T10:16:05.172Z,91.38
2023-04-16T10:17:05.201Z,91.89
2023-04-16T10:18:05.250Z,91.58
2023-04-16T10:19:05.148Z,91.99
2023-04-16T10:20:05.145Z,91.58
2023-04-16T10:21:05.144Z,91.89
2023-04-16T10:22:05.159Z,92.19
2023-04-16T10:23:05.130Z,91.58
2023-04-16T10:24:05.128Z,91.27
2023-04-16T10:25:05.129Z,91.38
2023-04-16T10:26:05.118Z,91.58
2023-04-16T10:27:05.117Z,90.41
2023-04-16T10:28:05.120Z,91.54
2023-04-16T10:29:05.104Z,91.85
2023-04-16T10:30:05.097Z,91.03
2023-04-16T10:31:05.140Z,92.25
2023-04-16T10:32:05.091Z,91.85
2023-04-16T10:33:05.155Z,92.25
2023-04-16T10:34:05.098Z,90.82
2023-04-16T10:35:05.076Z,91.95
2023-04-16T10:36:07.731Z,92.05
2023-04-16T10:37:05.071Z,92.15
2023-04-16T10:38:05.065Z,90.92
2023-04-16T10:39:05.059Z,91.64
2023-04-16T10:40:05.048Z,91.80
2023-04-16T10:41:05.046Z,92.21
2023-04-16T10:42:05.041Z,91.39
2023-04-16T10:43:05.035Z,91.29
2023-04-16T10:44:05.033Z,90.78
2023-04-16T10:45:05.028Z,89.25
2023-04-16T10:46:05.035Z,90.58
2023-04-16T10:47:05.023Z,89.45
2023-04-16T10:48:05.015Z,90.23
2023-04-16T10:49:05.015Z,91.15
2023-04-16T10:50:05.028Z,90.64
2023-04-16T10:51:05.002Z,91.25
2023-04-16T10:52:05.011Z,91.46
2023-04-16T10:53:04.987Z,90.53
2023-04-16T10:54:04.987Z,89.92
2023-04-16T10:55:04.982Z,89.31
2023-04-16T10:56:04.985Z,90.33
2023-04-16T10:57:04.970Z,90.08
2023-04-16T10:58:04.972Z,90.02
2023-04-16T10:59:04.973Z,90.02
2023-04-16T11:00:05.009Z,88.59
2023-04-16T11:01:05.303Z,89.20
2023-04-16T11:02:04.979Z,89.41
2023-04-16T11:03:05.114Z,88.79
2023-04-16T11:04:05.093Z,89.04
2023-04-16T11:05:04.988Z,88.29
2023-04-16T11:06:04.963Z,88.39
2023-04-16T11:07:04.935Z,89.61
2023-04-16T11:08:04.930Z,90.02
2023-04-16T11:09:04.930Z,89.25
2023-04-16T11:10:04.916Z,88.79
2023-04-16T11:11:04.909Z,88.29
2023-04-16T11:12:04.910Z,88.59
2023-04-16T11:13:04.906Z,87.88
2023-04-16T11:14:04.901Z,88.24
2023-04-16T11:15:04.903Z,87.94
2023-04-16T11:16:04.942Z,87.84
2023-04-16T11:17:04.886Z,87.43
2023-04-16T11:18:04.891Z,86.41
2023-04-16T11:19:04.879Z,87.18
2023-04-16T11:20:04.878Z,88.10
2023-04-16T11:21:04.872Z,86.88
2023-04-16T11:22:04.897Z,86.10
2023-04-16T11:23:04.859Z,86.06
2023-04-16T11:24:04.857Z,85.28
2023-04-16T11:25:04.853Z,87.12
2023-04-16T11:26:04.846Z,87.73
2023-04-16T11:27:04.844Z,86.71
2023-04-16T11:28:04.840Z,87.43
2023-04-16T11:29:04.835Z,87.12
2023-04-16T11:30:04.831Z,87.32
2023-04-16T11:31:04.941Z,87.43
2023-04-16T11:32:04.830Z,87.84
2023-04-16T11:33:04.823Z,88.04
2023-04-16T11:34:04.817Z,86.71
2023-04-16T11:35:04.832Z,86.41
2023-04-16T11:36:04.810Z,87.12
2023-04-16T11:37:04.803Z,86.98
2023-04-16T11:38:04.829Z,86.71
2023-04-16T11:39:04.795Z,85.79
2023-04-16T11:40:04.848Z,88.20
2023-04-16T11:41:04.784Z,88.41
2023-04-16T11:42:04.816Z,89.90
2023-04-16T11:43:04.778Z,89.90
2023-04-16T11:44:04.776Z,87.76
2023-04-16T11:45:04.770Z,87.85
2023-04-16T11:46:12.817Z,86.43
2023-04-16T11:47:04.810Z,85.41
2023-04-16T11:48:04.789Z,85.21
2023-04-16T11:49:04.755Z,83.81
2023-04-16T11:50:04.753Z,84.12
2023-04-16T11:51:04.747Z,85.14
2023-04-16T11:52:04.741Z,85.45
2023-04-16T11:53:04.737Z,85.89
2023-04-16T11:54:04.760Z,85.96
2023-04-16T11:55:04.731Z,85.79
2023-04-16T11:56:04.731Z,86.77
2023-04-16T11:57:04.720Z,85.75
2023-04-16T11:58:04.720Z,87.23
2023-04-16T11:59:04.716Z,87.59
2023-04-16T12:00:05.614Z,87.38
2023-04-16T12:01:04.710Z,86.43
2023-04-16T12:02:04.732Z,87.24
2023-04-16T12:03:04.914Z,86.63
2023-04-16T12:04:04.932Z,85.71
2023-04-16T12:05:04.711Z,83.63
2023-04-16T12:06:04.694Z,85.10
2023-04-16T12:07:04.686Z,83.57
2023-04-16T12:08:04.679Z,82.45
2023-04-16T12:09:04.675Z,83.26
2023-04-16T12:10:04.713Z,84.49
2023-04-16T12:11:04.675Z,83.98
2023-04-16T12:12:04.664Z,83.98
2023-04-16T12:13:04.660Z,82.86
2023-04-16T12:14:04.657Z,83.98
2023-04-16T12:15:04.652Z,83.02
2023-04-16T12:16:04.649Z,83.94
2023-04-16T12:17:04.664Z,83.47
2023-04-16T12:18:04.704Z,83.78
2023-04-16T12:19:04.636Z,83.57
2023-04-16T12:20:04.656Z,82.75
2023-04-16T12:21:04.625Z,82.04
2023-04-16T12:22:04.626Z,82.96
2023-04-16T12:23:04.627Z,83.43
2023-04-16T12:24:04.626Z,84.25
2023-04-16T12:25:04.622Z,82.10
2023-04-16T12:26:04.630Z,82.10
2023-04-16T12:27:04.612Z,82.41
2023-04-16T12:28:04.619Z,82.14
2023-04-16T12:29:04.594Z,82.51
2023-04-16T12:30:04.605Z,81.59
2023-04-16T12:31:04.602Z,81.90
2023-04-16T12:32:04.606Z,81.39
2023-04-16T12:33:04.605Z,81.18
2023-04-16T12:34:04.584Z,82.61
2023-04-16T12:35:04.576Z,83.02
2023-04-16T12:36:04.582Z,83.12
2023-04-16T12:37:04.569Z,80.98
2023-04-16T12:38:04.563Z,80.82
2023-04-16T12:39:04.560Z,81.39
2023-04-16T12:40:04.558Z,83.53
2023-04-16T12:41:04.564Z,83.80
2023-04-16T12:42:04.566Z,84.14
2023-04-16T12:43:04.554Z,81.76
2023-04-16T12:44:04.537Z,82.00
2023-04-16T12:45:04.551Z,82.57
2023-04-16T12:46:04.705Z,80.47
2023-04-16T12:47:04.531Z,80.88
2023-04-16T12:48:04.569Z,82.21
2023-04-16T12:49:04.527Z,82.51
2023-04-16T12:50:04.522Z,81.39
2023-04-16T12:51:04.509Z,82.51
2023-04-16T12:52:04.510Z,82.71
2023-04-16T12:53:04.503Z,81.29